Latest Weather Observations for Minlaton Airport

IDS60801

Issued at 3:51 pm CST Saturday 4 July 2020 (issued every 10 minutes, with the page automatically refreshed every 10 minutes)

About weather observations | Map of weather stations | Latest weather observations for SA | Other Formats
Station Details ID: 022031 Name: MINLATON AERO Lat: -34.75 Lon: 137.53 Height: 32.0 m
Data from the previous 72 hours. | See also: Recent months at Minlaton Airport
Date/Time
CST
Temp
°C
App
Temp
°C
Dew
Point
°C
Rel
Hum
%
Delta-T
°C
Wind Press
QNH
hPa
Press
MSL
hPa
Rain since
9am
mm
Dir  Spd
km/h
Gust
km/h
Spd
kts
Gust
kts
04/03:30pm 14.2 12.2 12.6 90 0.9 WSW 15 19 8 10 1030.6 1030.6 0.2
04/03:00pm 13.4 11.6 12.0 91 0.7 W 13 17 7 9 1030.5 1030.5 0.2
04/02:30pm 13.2 10.5 11.8 91 0.7 WSW 17 22 9 12 1030.6 1030.6 0.0
04/02:00pm 14.1 11.5 12.0 87 1.1 W 17 22 9 12 1030.7 1030.7 0.0
04/01:30pm 14.2 11.8 12.8 91 0.8 WSW 17 20 9 11 1031.0 1031.0 0.0
04/01:00pm 13.5 10.4 11.7 89 1.0 W 19 24 10 13 1031.3 1031.3 0.0
04/12:30pm 13.3 10.1 11.2 87 1.1 WSW 19 20 10 11 1031.7 1031.7 0.0
04/12:00pm 13.8 11.0 11.3 85 1.3 W 17 24 9 13 1031.9 1031.9 0.0
04/11:30am 13.8 11.2 10.8 82 1.6 W 15 20 8 11 1032.2 1032.2 0.0
04/11:00am 13.4 11.1 10.4 82 1.6 W 13 17 7 9 1032.4 1032.4 0.0
04/10:30am 13.2 10.9 10.6 84 1.3 W 13 19 7 10 1032.4 1032.4 0.0
04/10:00am 12.3 11.2 10.5 89 0.9 WSW 7 11 4 6 1032.3 1032.3 0.0
04/09:30am 11.4 9.3 9.8 90 0.8 SW 11 15 6 8 1032.2 1032.2 0.0
04/09:00am 11.0 9.8 9.6 91 0.7 SSW 6 11 3 6 1032.1 1032.1 0.0
04/08:30am 10.1 8.7 8.9 92 0.6 ENE 6 7 3 4 1031.7 1031.7 0.0
04/08:00am 9.5 7.4 8.3 92 0.6 ESE 9 11 5 6 1031.4 1031.4 0.0
04/07:30am 8.9 8.3 7.4 90 0.7 CALM 0 0 0 0 1031.3 1031.3 0.0
04/07:00am 9.0 8.4 7.5 90 0.7 CALM 0 0 0 0 1031.3 1031.3 0.0
04/06:30am 9.4 8.9 7.7 89 0.8 CALM 0 0 0 0 1031.2 1031.2 0.0
04/06:00am 9.5 9.0 7.8 89 0.8 CALM 0 0 0 0 1031.0 1031.0 0.0
04/05:30am 9.7 9.2 7.8 88 0.9 CALM 0 0 0 0 1030.9 1030.9 0.0
04/05:00am 9.9 8.1 7.8 87 1.0 SSW 7 9 4 5 1030.8 1030.8 0.0
04/04:30am 10.3 7.3 7.9 85 1.1 WSW 13 17 7 9 1030.9 1030.9 0.0
04/04:00am 10.7 6.5 7.4 80 1.6 SW 19 26 10 14 1031.0 1031.0 0.0
04/03:30am 9.4 8.8 7.2 86 1.0 CALM 0 0 0 0 1030.9 1030.9 0.0
04/03:00am 9.2 7.7 7.0 86 1.0 SSE 4 7 2 4 1030.9 1030.9 0.0
04/02:30am 9.3 8.6 6.9 85 1.1 CALM 0 0 0 0 1030.9 1030.9 0.0
04/02:00am 9.2 8.1 7.0 86 1.0 ESE 2 6 1 3 1031.0 1031.0 0.0
04/01:30am 9.5 7.6 6.9 84 1.2 WSW 6 7 3 4 1031.0 1031.0 0.0
04/01:00am 9.3 6.8 6.6 83 1.3 WSW 9 13 5 7 1031.0 1031.0 0.0
04/12:30am 8.7 6.5 6.0 83 1.2 SW 7 9 4 5 1031.1 1031.1 0.0
04/12:00am 8.4 5.8 5.9 84 1.1 S 9 11 5 6 1031.1 1031.1 0.0
 
Date/Time
CST
Temp
°C
App
Temp
°C
Dew
Point
°C
Rel
Hum
%
Delta-T
°C
Wind Press
QNH
hPa
Press
MSL
hPa
Rain since
9am
mm
Dir  Spd
km/h
Gust
km/h
Spd
kts
Gust
kts
03/11:30pm 8.7 6.1 6.0 83 1.2 SSW 9 11 5 6 1031.0 1031.0 0.0
03/11:00pm 8.2 5.9 5.5 83 1.2 SSW 7 9 4 5 1031.1 1031.1 0.0
03/10:30pm 8.2 5.5 5.5 83 1.2 S 9 11 5 6 1031.0 1031.0 0.0
03/10:00pm 8.8 5.7 5.5 80 1.5 S 11 13 6 7 1031.0 1031.0 0.0
03/09:30pm 9.1 6.0 5.7 79 1.5 S 11 15 6 8 1030.8 1030.8 0.0
03/09:00pm 9.5 6.4 5.7 77 1.7 S 11 15 6 8 1030.6 1030.6 0.0
03/08:30pm 9.7 6.6 5.7 76 1.8 SSW 11 15 6 8 1030.4 1030.4 0.0
03/08:00pm 10.1 6.3 5.7 74 2.0 SSW 15 20 8 11 1030.3 1030.3 0.0
03/07:30pm 10.0 6.2 5.8 75 1.9 SSW 15 17 8 9 1030.0 1030.0 0.0
03/07:00pm 10.7 6.0 5.3 69 2.5 SSW 19 26 10 14 1029.7 1029.7 0.0
03/06:30pm 10.4 6.2 5.6 72 2.2 SSW 17 22 9 12 1029.5 1029.5 0.0
03/06:00pm 10.5 6.3 5.5 71 2.3 SSW 17 22 9 12 1029.1 1029.1 0.0
03/05:30pm 10.6 6.5 6.0 73 2.1 SSW 17 20 9 11 1028.7 1028.7 0.0
03/05:00pm 10.5 6.0 5.9 73 2.1 SSW 19 20 10 11 1028.4 1028.4 0.0
03/04:30pm 11.2 6.0 5.7 69 2.5 SSW 22 30 12 16 1028.0 1028.1 0.0
03/04:00pm 11.9 6.8 6.0 67 2.8 SSW 22 33 12 18 1027.7 1027.8 0.0
03/03:30pm 11.7 5.7 5.3 65 2.9 SSW 26 32 14 17 1027.3 1027.4 0.0
03/03:00pm 12.5 6.3 6.1 65 3.0 SW 28 39 15 21 1026.9 1027.0 0.0
03/02:30pm 12.4 5.4 5.8 64 3.1 SSW 32 43 17 23 1026.7 1026.8 0.0
03/02:00pm 12.8 6.3 6.4 65 3.0 SSW 30 39 16 21 1026.5 1026.6 0.0
03/01:30pm 13.0 6.3 7.2 68 2.8 SSW 32 41 17 22 1026.4 1026.5 0.0
03/01:00pm 13.6 7.0 7.6 67 3.0 SSW 32 43 17 23 1026.2 1026.3 0.0
03/12:30pm 12.9 6.2 8.2 73 2.3 SSW 33 41 18 22 1026.3 1026.4 0.0
03/12:00pm 13.5 6.7 7.7 68 2.8 SW 33 41 18 22 1026.2 1026.3 0.0
03/11:30am 12.6 5.8 7.5 71 2.5 SSW 33 43 18 23 1026.2 1026.3 0.0
03/11:00am 13.3 6.3 8.4 72 2.4 SSW 35 46 19 25 1026.0 1026.1 0.0
03/10:30am 13.0 6.1 8.9 76 2.1 SSW 35 46 19 25 1025.7 1025.8 0.0
03/10:00am 12.5 6.5 10.0 85 1.3 SW 32 44 17 24 1025.3 1025.4 0.0
03/09:30am 12.7 8.3 10.4 86 1.2 WSW 24 37 13 20 1024.5 1024.6 0.0
03/09:00am 12.2 7.4 10.4 89 0.9 SW 26 35 14 19 1024.0 1024.1 4.0
03/08:30am 12.0 6.4 10.2 89 0.9 WSW 30 39 16 21 1023.5 1023.6 4.0
03/08:00am 11.4 7.6 9.8 90 0.8 W 20 26 11 14 1023.1 1023.2 4.0
03/07:30am 11.9 7.2 10.6 92 0.7 W 26 33 14 18 1022.9 1023.0 4.0
03/07:00am 11.9 7.2 10.6 92 0.7 W 26 32 14 17 1022.5 1022.6 3.6
03/06:30am 11.8 8.2 10.5 92 0.7 WNW 20 32 11 17 1022.1 1022.2 3.6
03/06:00am 12.0 6.0 10.2 89 0.9 WNW 32 41 17 22 1021.6 1021.7 1.2
03/05:30am 11.8 7.3 10.0 89 0.9 NW 24 33 13 18 1021.4 1021.5 1.0
03/05:00am 11.9 6.6 10.0 88 1.0 WNW 28 35 15 19 1021.4 1021.5 1.0
03/04:30am 11.8 6.5 10.0 89 0.9 WNW 28 35 15 19 1021.4 1021.5 1.0
03/04:00am 11.6 7.1 10.0 90 0.8 WNW 24 30 13 16 1021.6 1021.7 1.0
03/03:30am 11.1 6.4 9.4 89 0.8 WNW 24 30 13 16 1021.5 1021.6 1.0
03/03:00am 11.2 6.1 9.3 88 0.9 WNW 26 33 14 18 1021.5 1021.6 1.0
03/02:30am 11.0 5.9 9.1 88 0.9 WNW 26 30 14 16 1021.5 1021.6 1.0
03/02:00am 11.1 5.9 9.0 87 1.0 WNW 26 35 14 19 1021.6 1021.7 1.0
03/01:30am 11.3 5.8 9.0 86 1.1 WNW 28 35 15 19 1021.6 1021.7 1.0
03/01:00am 11.1 5.2 9.0 87 1.0 WNW 30 39 16 21 1021.7 1021.8 0.8
03/12:30am 11.6 6.9 9.2 85 1.2 WNW 24 32 13 17 1021.8 1021.9 0.6
03/12:00am 11.5 6.3 8.7 83 1.4 WNW 26 35 14 19 1021.9 1022.0 0.6
 
Date/Time
CST
Temp
°C
App
Temp
°C
Dew
Point
°C
Rel
Hum
%
Delta-T
°C
Wind Press
QNH
hPa
Press
MSL
hPa
Rain since
9am
mm
Dir  Spd
km/h
Gust
km/h
Spd
kts
Gust
kts
02/11:30pm 11.7 6.8 8.6 81 1.5 WNW 24 32 13 17 1021.8 1021.9 0.6
02/11:00pm 11.0 6.0 7.9 81 1.5 WNW 24 28 13 15 1021.8 1021.9 0.6
02/10:30pm 11.6 6.6 7.9 78 1.8 WNW 24 32 13 17 1021.8 1021.9 0.6
02/10:00pm 10.9 6.6 8.0 82 1.4 W 20 26 11 14 1021.8 1021.9 0.6
02/09:30pm 10.7 6.0 7.6 81 1.5 W 22 26 12 14 1021.7 1021.8 0.6
02/09:00pm 9.6 5.8 7.4 86 1.0 WNW 17 20 9 11 1021.6 1021.7 0.6
02/08:30pm 10.1 5.4 7.9 86 1.1 WNW 22 30 12 16 1021.6 1021.7 0.6
02/08:00pm 10.7 6.3 7.2 79 1.7 W 20 26 11 14 1021.1 1021.2 0.6
02/07:30pm 10.6 5.3 6.6 76 1.9 W 24 30 13 16 1020.8 1020.9 0.6
02/07:00pm 10.8 5.1 6.7 76 1.9 W 26 33 14 18 1020.5 1020.6 0.6
02/06:30pm 9.9 6.0 7.3 84 1.2 W 17 20 9 11 1020.3 1020.4 0.6
02/06:00pm 10.3 5.9 7.2 81 1.5 W 20 24 11 13 1020.1 1020.2 0.6
02/05:30pm 10.1 3.9 7.9 86 1.1 SW 30 46 16 25 1019.9 1020.0 0.6
02/05:22pm 10.8 5.8 8.0 83 1.4 WSW 24 46 13 25 1019.7 1019.8 0.6
02/05:00pm 9.9 6.0 7.2 83 1.3 WSW 17 19 9 10 1019.7 1019.8 0.6
02/04:30pm 11.4 5.7 8.3 81 1.5 SW 28 39 15 21 1019.5 1019.6 0.6
02/04:21pm 11.7 5.8 7.4 75 2.1 WSW 28 46 15 25 1019.3 1019.4 0.6
02/04:00pm 12.3 7.5 7.4 72 2.4 WSW 22 30 12 16 1019.2 1019.3 0.6
02/03:30pm 11.6 6.3 6.9 73 2.2 SW 24 32 13 17 1019.0 1019.1 0.6
02/03:00pm 13.1 7.4 8.2 72 2.4 WSW 28 35 15 19 1018.7 1018.7 0.6
02/02:30pm 13.0 6.2 7.9 71 2.5 W 33 44 18 24 1018.6 1018.6 0.6
02/02:00pm 12.3 4.9 6.8 69 2.6 W 35 44 19 24 1018.5 1018.5 0.6
02/01:30pm 11.5 5.5 7.0 74 2.1 WSW 28 35 15 19 1018.5 1018.5 0.6
02/01:00pm 11.6 4.5 8.1 79 1.7 W 35 44 19 24 1018.5 1018.5 0.4
02/12:30pm 13.0 6.3 8.1 72 2.4 WNW 33 43 18 23 1018.3 1018.3 0.2
02/12:00pm 12.7 7.2 9.3 80 1.7 WNW 28 35 15 19 1018.5 1018.5 0.2
02/11:30am 10.9 4.6 7.6 80 1.6 WNW 30 39 16 21 1018.6 1018.6 0.2
02/11:00am 10.6 4.1 6.4 75 2.0 W 30 37 16 20 1018.6 1018.6 0.2
02/10:30am 12.9 6.7 8.0 72 2.4 W 30 37 16 20 1018.3 1018.3 0.2
02/10:00am 11.2 3.6 5.7 69 2.5 W 35 48 19 26 1017.9 1017.9 0.2
02/09:55am 11.1 5.0 6.8 75 2.0 W 28 48 15 26 1017.9 1017.9 0.2
02/09:30am 11.0 5.7 6.7 75 2.0 WSW 24 33 13 18 1017.5 1017.5 0.0
02/09:15am 11.3 5.1 6.2 71 2.4 W 28 48 15 26 1017.3 1017.3 0.0
02/09:00am 11.5 6.2 6.8 73 2.2 W 24 30 13 16 1017.2 1017.2 -
02/08:30am 10.5 5.0 6.1 74 2.0 W 24 35 13 19 1016.8 1016.8 -
02/08:00am 9.2 4.4 5.4 77 1.7 W 20 24 11 13 1016.4 1016.4 -
02/07:30am 9.7 5.5 7.3 85 1.1 W 19 22 10 12 1016.0 1016.0 -
02/07:00am 9.2 3.8 6.5 83 1.3 WNW 24 28 13 15 1015.6 1015.6 -
02/06:30am 7.8 5.1 5.8 87 0.9 SW 9 11 5 6 1015.3 1015.3 -
02/06:00am 9.6 4.1 7.5 87 1.0 W 26 37 14 20 1015.1 1015.1 -
02/05:30am 9.3 4.4 6.9 85 1.1 WNW 22 26 12 14 1014.8 1014.8 -
02/05:06am 9.4 1.6 6.7 83 1.3 W 37 59 20 32 1014.6 1014.6 -
02/05:00am 10.2 4.6 7.3 82 1.4 W 26 59 14 32 1014.3 1014.3 -
02/04:59am 10.2 5.0 7.3 82 1.4 W 24 59 13 32 1014.4 1014.4 -
02/04:30am 9.6 3.1 6.7 82 1.4 W 30 41 16 22 1014.1 1014.1 -
02/04:15am 9.9 5.5 7.3 84 1.2 WSW 20 41 11 22 1014.1 1014.1 -
02/04:00am 8.9 5.6 6.5 85 1.1 WSW 13 17 7 9 1014.0 1014.0 -
02/03:30am 9.5 4.1 6.2 80 1.5 W 24 30 13 16 1014.0 1014.0 -
02/03:14am 9.6 3.0 6.1 79 1.6 WNW 30 54 16 29 1014.2 1014.2 -
02/03:00am 9.7 4.8 7.0 83 1.3 WNW 22 30 12 16 1013.8 1013.8 -
02/02:37am 9.5 2.6 6.6 82 1.4 WSW 32 50 17 27 1013.7 1013.7 -
02/02:30am 9.9 3.4 6.6 80 1.5 W 30 41 16 22 1013.8 1013.8 -
02/02:13am 10.1 4.1 7.2 82 1.4 W 28 46 15 25 1013.6 1013.6 -
02/02:00am 10.3 5.0 6.8 79 1.7 WSW 24 32 13 17 1013.4 1013.4 -
02/01:30am 10.1 5.9 7.5 84 1.2 WNW 19 24 10 13 1013.3 1013.3 -
02/01:00am 11.2 4.5 7.5 78 1.8 W 32 46 17 25 1013.0 1013.0 5.0
02/12:57am 11.2 4.9 7.3 77 1.9 W 30 39 16 21 1013.0 1013.0 4.8
02/12:30am 9.5 5.2 6.8 83 1.3 W 19 20 10 11 1013.1 1013.1 4.8
02/12:00am 10.1 4.1 7.2 82 1.4 WSW 28 39 15 21 1013.1 1013.1 4.8
 
Date/Time
CST
Temp
°C
App
Temp
°C
Dew
Point
°C
Rel
Hum
%
Delta-T
°C
Wind Press
QNH
hPa
Press
MSL
hPa
Rain since
9am
mm
Dir  Spd
km/h
Gust
km/h
Spd
kts
Gust
kts
01/11:30pm 10.3 3.5 7.0 80 1.6 SW 32 43 17 23 1012.6 1012.6 4.8
01/11:16pm 11.0 3.3 6.9 76 1.9 WSW 37 50 20 27 1012.4 1012.4 4.8
01/11:00pm 12.1 5.7 8.4 78 1.8 W 32 44 17 24 1012.1 1012.1 4.8
01/10:30pm 11.3 4.6 7.4 77 1.9 W 32 46 17 25 1011.8 1011.8 4.8
01/10:00pm 10.8 2.8 7.3 79 1.7 WSW 39 52 21 28 1011.2 1011.2 4.8
01/09:43pm 11.5 2.8 7.6 77 1.9 W 43 56 23 30 1010.9 1010.9 4.8
01/09:30pm 12.1 4.2 8.0 76 2.0 WNW 39 52 21 28 1010.7 1010.7 4.8
01/09:00pm 12.0 5.6 8.7 80 1.6 W 32 43 17 23 1010.4 1010.4 4.8
01/08:30pm 11.8 4.0 8.1 78 1.8 W 39 52 21 28 1009.9 1009.9 4.8
01/08:00pm 11.5 2.0 6.8 73 2.2 W 46 61 25 33 1009.6 1009.6 4.8
01/07:44pm 11.3 4.8 9.0 86 1.1 WNW 33 52 18 28 1009.5 1009.5 4.8
01/07:30pm 9.5 4.0 7.6 88 0.9 WNW 26 39 14 21 1009.8 1009.8 4.6
01/07:19pm 9.1 0.8 6.0 81 1.4 W 39 67 21 36 1009.7 1009.7 4.4
01/07:17pm 9.1 1.4 5.3 77 1.7 WNW 35 67 19 36 1009.5 1009.5 3.8
01/07:15pm 13.0 7.2 10.9 87 1.1 WNW 32 50 17 27 1009.2 1009.2 3.0
01/07:00pm 12.5 6.4 10.4 87 1.1 WNW 33 43 18 23 1008.6 1008.6 3.0
01/06:30pm 12.1 5.9 10.2 88 1.0 WNW 33 39 18 21 1008.4 1008.4 3.0
01/06:11pm 11.7 4.6 9.6 87 1.1 NW 37 56 20 30 1008.4 1008.4 3.0
01/06:00pm 11.9 4.9 10.0 88 1.0 WNW 37 50 20 27 1008.5 1008.5 2.4
01/05:30pm 12.9 7.0 10.6 86 1.2 WNW 32 43 17 23 1007.7 1007.7 0.8
01/05:00pm 12.8 7.5 11.2 90 0.8 WNW 30 37 16 20 1007.1 1007.1 0.8
01/04:30pm 12.8 5.8 11.4 91 0.7 W 39 52 21 28 1007.0 1007.0 0.6
01/04:18pm 12.7 5.7 11.1 90 0.8 W 39 57 21 31 1007.0 1007.0 0.4
01/04:00pm 13.5 6.0 10.7 83 1.5 W 41 54 22 29 1006.7 1006.7 0.0

Other formats

Comma delimited format used in spreadsheet applications
http://www.bom.gov.au/fwo/IDS60801/IDS60801.95659.axf

JavaScript Object Notation format (JSON) in row-major order
http://www.bom.gov.au/fwo/IDS60801/IDS60801.95659.json

Data quality

Most of these data are generated automatically and are frequently updated. Quality checks on data are not normally performed. It is possible for incorrect values to appear. Refer to information at About Latest Weather Observations and please check the disclaimer before using these data.